sensor_id;sensor_type;location;lat;lon;timestamp;P1;durP1;ratioP1;P2;durP2;ratioP2
16813;SDS011;8524;57.650;11.926;2023-06-14T00:00:47;3.40;;;3.10;;
16813;SDS011;8524;57.650;11.926;2023-06-14T00:03:14;3.13;;;2.90;;
16813;SDS011;8524;57.650;11.926;2023-06-14T00:05:44;3.30;;;2.93;;
16813;SDS011;8524;57.650;11.926;2023-06-14T00:08:11;3.40;;;3.10;;
16813;SDS011;8524;57.650;11.926;2023-06-14T00:10:40;4.10;;;3.70;;
16813;SDS011;8524;57.650;11.926;2023-06-14T00:13:07;3.23;;;2.93;;
16813;SDS011;8524;57.650;11.926;2023-06-14T00:15:34;3.87;;;3.37;;
16813;SDS011;8524;57.650;11.926;2023-06-14T00:18:02;3.37;;;3.07;;
16813;SDS011;8524;57.650;11.926;2023-06-14T00:20:30;3.67;;;3.37;;
16813;SDS011;8524;57.650;11.926;2023-06-14T00:23:00;4.00;;;2.90;;
16813;SDS011;8524;57.650;11.926;2023-06-14T00:25:28;3.77;;;3.20;;
16813;SDS011;8524;57.650;11.926;2023-06-14T00:27:55;3.47;;;3.00;;
16813;SDS011;8524;57.650;11.926;2023-06-14T00:30:23;3.27;;;2.97;;
16813;SDS011;8524;57.650;11.926;2023-06-14T00:32:55;3.67;;;3.37;;
16813;SDS011;8524;57.650;11.926;2023-06-14T00:35:23;3.67;;;3.37;;
16813;SDS011;8524;57.650;11.926;2023-06-14T00:37:50;3.30;;;2.80;;
16813;SDS011;8524;57.650;11.926;2023-06-14T00:40:18;4.23;;;3.10;;
16813;SDS011;8524;57.650;11.926;2023-06-14T00:42:45;3.23;;;2.83;;
16813;SDS011;8524;57.650;11.926;2023-06-14T00:45:12;3.53;;;3.20;;
16813;SDS011;8524;57.650;11.926;2023-06-14T00:47:40;4.03;;;3.20;;
16813;SDS011;8524;57.650;11.926;2023-06-14T00:50:09;3.80;;;3.50;;
16813;SDS011;8524;57.650;11.926;2023-06-14T00:52:36;3.80;;;3.10;;
16813;SDS011;8524;57.650;11.926;2023-06-14T00:55:03;3.27;;;2.97;;
16813;SDS011;8524;57.650;11.926;2023-06-14T00:57:33;3.50;;;3.20;;
16813;SDS011;8524;57.650;11.926;2023-06-14T01:00:02;4.70;;;2.97;;
16813;SDS011;8524;57.650;11.926;2023-06-14T01:02:34;3.73;;;3.33;;
16813;SDS011;8524;57.650;11.926;2023-06-14T01:05:01;3.90;;;3.57;;
16813;SDS011;8524;57.650;11.926;2023-06-14T01:07:46;3.67;;;3.37;;
16813;SDS011;8524;57.650;11.926;2023-06-14T01:10:47;3.97;;;3.67;;
16813;SDS011;8524;57.650;11.926;2023-06-14T01:13:21;3.70;;;3.40;;
16813;SDS011;8524;57.650;11.926;2023-06-14T01:15:54;3.40;;;3.07;;
16813;SDS011;8524;57.650;11.926;2023-06-14T01:18:22;3.70;;;3.23;;
16813;SDS011;8524;57.650;11.926;2023-06-14T01:20:51;3.40;;;3.10;;
16813;SDS011;8524;57.650;11.926;2023-06-14T01:23:22;3.83;;;3.37;;
16813;SDS011;8524;57.650;11.926;2023-06-14T01:25:50;3.60;;;3.17;;
16813;SDS011;8524;57.650;11.926;2023-06-14T01:28:19;5.63;;;3.20;;
16813;SDS011;8524;57.650;11.926;2023-06-14T01:30:47;4.00;;;3.60;;
16813;SDS011;8524;57.650;11.926;2023-06-14T01:33:19;6.07;;;3.37;;
16813;SDS011;8524;57.650;11.926;2023-06-14T01:35:48;5.80;;;4.30;;
16813;SDS011;8524;57.650;11.926;2023-06-14T01:38:17;5.63;;;4.47;;
16813;SDS011;8524;57.650;11.926;2023-06-14T01:40:47;5.97;;;3.93;;
16813;SDS011;8524;57.650;11.926;2023-06-14T01:43:16;7.23;;;4.70;;
16813;SDS011;8524;57.650;11.926;2023-06-14T01:45:44;5.27;;;4.40;;
16813;SDS011;8524;57.650;11.926;2023-06-14T01:48:13;6.37;;;4.33;;
16813;SDS011;8524;57.650;11.926;2023-06-14T01:50:41;5.03;;;4.57;;
16813;SDS011;8524;57.650;11.926;2023-06-14T01:53:09;5.13;;;4.23;;
16813;SDS011;8524;57.650;11.926;2023-06-14T01:55:36;4.10;;;3.70;;
16813;SDS011;8524;57.650;11.926;2023-06-14T01:58:05;6.40;;;4.40;;
16813;SDS011;8524;57.650;11.926;2023-06-14T02:00:32;5.93;;;4.73;;
16813;SDS011;8524;57.650;11.926;2023-06-14T02:02:59;4.80;;;3.77;;
16813;SDS011;8524;57.650;11.926;2023-06-14T02:05:26;4.87;;;4.20;;
16813;SDS011;8524;57.650;11.926;2023-06-14T02:07:53;4.57;;;4.17;;
16813;SDS011;8524;57.650;11.926;2023-06-14T02:10:20;4.97;;;4.43;;
16813;SDS011;8524;57.650;11.926;2023-06-14T02:12:47;4.97;;;4.47;;
16813;SDS011;8524;57.650;11.926;2023-06-14T02:15:16;4.80;;;4.23;;
16813;SDS011;8524;57.650;11.926;2023-06-14T02:17:44;5.17;;;4.30;;
16813;SDS011;8524;57.650;11.926;2023-06-14T02:20:12;5.87;;;3.90;;
16813;SDS011;8524;57.650;11.926;2023-06-14T02:22:39;4.77;;;4.27;;
16813;SDS011;8524;57.650;11.926;2023-06-14T02:25:07;6.73;;;4.43;;
16813;SDS011;8524;57.650;11.926;2023-06-14T02:27:35;4.78;;;4.35;;
16813;SDS011;8524;57.650;11.926;2023-06-14T02:30:02;4.60;;;4.20;;
16813;SDS011;8524;57.650;11.926;2023-06-14T02:32:31;5.03;;;4.50;;
16813;SDS011;8524;57.650;11.926;2023-06-14T02:34:59;4.73;;;4.00;;
16813;SDS011;8524;57.650;11.926;2023-06-14T02:37:26;5.70;;;4.17;;
16813;SDS011;8524;57.650;11.926;2023-06-14T02:39:53;4.90;;;4.33;;
16813;SDS011;8524;57.650;11.926;2023-06-14T02:42:20;4.67;;;4.17;;
16813;SDS011;8524;57.650;11.926;2023-06-14T02:44:47;4.17;;;3.70;;
16813;SDS011;8524;57.650;11.926;2023-06-14T02:47:16;4.57;;;3.80;;
16813;SDS011;8524;57.650;11.926;2023-06-14T02:49:44;4.13;;;3.73;;
16813;SDS011;8524;57.650;11.926;2023-06-14T02:52:12;4.53;;;4.13;;
16813;SDS011;8524;57.650;11.926;2023-06-14T02:54:39;5.43;;;3.80;;
16813;SDS011;8524;57.650;11.926;2023-06-14T02:57:06;4.57;;;4.17;;
16813;SDS011;8524;57.650;11.926;2023-06-14T02:59:33;7.03;;;4.07;;
16813;SDS011;8524;57.650;11.926;2023-06-14T03:02:01;4.77;;;4.00;;
16813;SDS011;8524;57.650;11.926;2023-06-14T03:04:28;4.40;;;4.00;;
16813;SDS011;8524;57.650;11.926;2023-06-14T03:07:03;4.30;;;3.90;;
16813;SDS011;8524;57.650;11.926;2023-06-14T03:09:34;5.30;;;4.43;;
16813;SDS011;8524;57.650;11.926;2023-06-14T03:12:02;4.20;;;3.80;;
16813;SDS011;8524;57.650;11.926;2023-06-14T03:14:31;4.67;;;4.27;;
16813;SDS011;8524;57.650;11.926;2023-06-14T03:17:01;5.60;;;4.10;;
16813;SDS011;8524;57.650;11.926;2023-06-14T03:19:29;5.07;;;4.53;;
16813;SDS011;8524;57.650;11.926;2023-06-14T03:21:56;5.50;;;4.07;;
16813;SDS011;8524;57.650;11.926;2023-06-14T03:24:25;4.67;;;4.20;;
16813;SDS011;8524;57.650;11.926;2023-06-14T03:26:53;4.43;;;3.90;;
16813;SDS011;8524;57.650;11.926;2023-06-14T03:29:21;4.13;;;3.80;;
16813;SDS011;8524;57.650;11.926;2023-06-14T03:31:58;3.90;;;3.57;;
16813;SDS011;8524;57.650;11.926;2023-06-14T03:34:26;5.13;;;4.07;;
16813;SDS011;8524;57.650;11.926;2023-06-14T03:36:53;4.60;;;3.80;;
16813;SDS011;8524;57.650;11.926;2023-06-14T03:39:20;4.90;;;4.10;;
16813;SDS011;8524;57.650;11.926;2023-06-14T03:41:49;3.97;;;3.67;;
16813;SDS011;8524;57.650;11.926;2023-06-14T03:44:16;4.63;;;3.30;;
16813;SDS011;8524;57.650;11.926;2023-06-14T03:46:44;4.10;;;3.80;;
16813;SDS011;8524;57.650;11.926;2023-06-14T03:49:11;3.40;;;3.10;;
16813;SDS011;8524;57.650;11.926;2023-06-14T03:51:38;4.50;;;4.10;;
16813;SDS011;8524;57.650;11.926;2023-06-14T03:54:05;4.00;;;3.50;;
16813;SDS011;8524;57.650;11.926;2023-06-14T03:56:33;4.07;;;3.77;;
16813;SDS011;8524;57.650;11.926;2023-06-14T03:59:02;3.60;;;3.30;;
16813;SDS011;8524;57.650;11.926;2023-06-14T04:01:29;4.50;;;3.90;;
16813;SDS011;8524;57.650;11.926;2023-06-14T04:03:56;4.37;;;3.80;;
16813;SDS011;8524;57.650;11.926;2023-06-14T04:06:24;4.60;;;4.20;;
16813;SDS011;8524;57.650;11.926;2023-06-14T04:08:57;4.40;;;4.00;;
16813;SDS011;8524;57.650;11.926;2023-06-14T04:11:28;4.63;;;3.90;;
16813;SDS011;8524;57.650;11.926;2023-06-14T04:13:55;4.27;;;3.97;;
16813;SDS011;8524;57.650;11.926;2023-06-14T04:16:24;4.63;;;4.17;;
16813;SDS011;8524;57.650;11.926;2023-06-14T04:18:51;4.67;;;3.80;;
16813;SDS011;8524;57.650;11.926;2023-06-14T04:21:18;4.57;;;4.17;;
16813;SDS011;8524;57.650;11.926;2023-06-14T04:23:45;5.77;;;3.90;;
16813;SDS011;8524;57.650;11.926;2023-06-14T04:26:12;4.30;;;3.90;;
16813;SDS011;8524;57.650;11.926;2023-06-14T04:28:41;6.93;;;4.37;;
16813;SDS011;8524;57.650;11.926;2023-06-14T04:31:10;4.30;;;3.90;;
16813;SDS011;8524;57.650;11.926;2023-06-14T04:33:38;5.27;;;4.53;;
16813;SDS011;8524;57.650;11.926;2023-06-14T04:36:08;7.40;;;4.47;;
16813;SDS011;8524;57.650;11.926;2023-06-14T04:38:36;4.27;;;3.87;;
16813;SDS011;8524;57.650;11.926;2023-06-14T04:41:04;5.93;;;4.10;;
16813;SDS011;8524;57.650;11.926;2023-06-14T04:43:31;7.03;;;4.27;;
16813;SDS011;8524;57.650;11.926;2023-06-14T04:46:03;5.33;;;4.37;;
16813;SDS011;8524;57.650;11.926;2023-06-14T04:48:36;5.00;;;3.77;;
16813;SDS011;8524;57.650;11.926;2023-06-14T04:51:07;5.53;;;4.20;;
16813;SDS011;8524;57.650;11.926;2023-06-14T04:53:34;5.80;;;4.10;;
16813;SDS011;8524;57.650;11.926;2023-06-14T04:56:02;5.13;;;3.97;;
16813;SDS011;8524;57.650;11.926;2023-06-14T04:58:29;5.23;;;3.80;;
16813;SDS011;8524;57.650;11.926;2023-06-14T05:00:56;4.13;;;3.70;;
16813;SDS011;8524;57.650;11.926;2023-06-14T05:03:24;5.40;;;3.50;;
16813;SDS011;8524;57.650;11.926;2023-06-14T05:05:52;4.90;;;3.80;;
16813;SDS011;8524;57.650;11.926;2023-06-14T05:08:21;4.20;;;3.80;;
16813;SDS011;8524;57.650;11.926;2023-06-14T05:10:49;4.83;;;3.47;;
16813;SDS011;8524;57.650;11.926;2023-06-14T05:13:17;3.70;;;3.40;;
16813;SDS011;8524;57.650;11.926;2023-06-14T05:15:44;5.70;;;4.10;;
16813;SDS011;8524;57.650;11.926;2023-06-14T05:18:11;4.63;;;3.90;;
16813;SDS011;8524;57.650;11.926;2023-06-14T05:20:39;3.67;;;3.33;;
16813;SDS011;8524;57.650;11.926;2023-06-14T05:23:08;4.40;;;4.00;;
16813;SDS011;8524;57.650;11.926;2023-06-14T05:25:41;4.07;;;3.67;;
16813;SDS011;8524;57.650;11.926;2023-06-14T05:28:09;4.90;;;3.67;;
16813;SDS011;8524;57.650;11.926;2023-06-14T05:30:37;5.47;;;4.60;;
16813;SDS011;8524;57.650;11.926;2023-06-14T05:33:04;4.83;;;4.10;;
16813;SDS011;8524;57.650;11.926;2023-06-14T05:35:31;5.30;;;3.90;;
16813;SDS011;8524;57.650;11.926;2023-06-14T05:37:58;5.63;;;3.70;;
16813;SDS011;8524;57.650;11.926;2023-06-14T05:40:26;5.73;;;3.60;;
16813;SDS011;8524;57.650;11.926;2023-06-14T05:42:54;5.90;;;4.37;;
16813;SDS011;8524;57.650;11.926;2023-06-14T05:45:21;4.60;;;4.13;;
16813;SDS011;8524;57.650;11.926;2023-06-14T05:47:48;5.47;;;3.90;;
16813;SDS011;8524;57.650;11.926;2023-06-14T05:50:16;5.07;;;3.90;;
16813;SDS011;8524;57.650;11.926;2023-06-14T05:52:43;4.67;;;4.27;;
16813;SDS011;8524;57.650;11.926;2023-06-14T05:55:13;4.40;;;3.83;;
16813;SDS011;8524;57.650;11.926;2023-06-14T05:57:42;5.90;;;3.83;;
16813;SDS011;8524;57.650;11.926;2023-06-14T06:00:11;4.30;;;3.90;;
16813;SDS011;8524;57.650;11.926;2023-06-14T06:02:40;4.37;;;3.97;;
16813;SDS011;8524;57.650;11.926;2023-06-14T06:05:08;5.10;;;3.70;;
16813;SDS011;8524;57.650;11.926;2023-06-14T06:07:35;4.83;;;4.00;;
16813;SDS011;8524;57.650;11.926;2023-06-14T06:10:02;5.77;;;4.10;;
16813;SDS011;8524;57.650;11.926;2023-06-14T06:12:30;5.23;;;3.73;;
16813;SDS011;8524;57.650;11.926;2023-06-14T06:14:57;3.90;;;3.60;;
16813;SDS011;8524;57.650;11.926;2023-06-14T06:17:39;3.80;;;3.50;;
16813;SDS011;8524;57.650;11.926;2023-06-14T06:20:06;7.80;;;3.50;;
16813;SDS011;8524;57.650;11.926;2023-06-14T06:22:34;4.10;;;3.70;;
16813;SDS011;8524;57.650;11.926;2023-06-14T06:25:04;3.83;;;3.50;;
16813;SDS011;8524;57.650;11.926;2023-06-14T06:27:33;3.60;;;3.30;;
16813;SDS011;8524;57.650;11.926;2023-06-14T06:30:02;4.20;;;3.60;;
16813;SDS011;8524;57.650;11.926;2023-06-14T06:32:34;3.83;;;3.43;;
16813;SDS011;8524;57.650;11.926;2023-06-14T06:35:05;5.20;;;3.57;;
16813;SDS011;8524;57.650;11.926;2023-06-14T06:37:34;3.93;;;3.17;;
16813;SDS011;8524;57.650;11.926;2023-06-14T06:40:04;3.50;;;3.20;;
16813;SDS011;8524;57.650;11.926;2023-06-14T06:42:36;5.40;;;3.07;;
16813;SDS011;8524;57.650;11.926;2023-06-14T06:45:07;3.93;;;3.20;;
16813;SDS011;8524;57.650;11.926;2023-06-14T06:47:38;4.00;;;3.53;;
16813;SDS011;8524;57.650;11.926;2023-06-14T06:50:06;3.83;;;3.23;;
16813;SDS011;8524;57.650;11.926;2023-06-14T06:52:34;5.47;;;3.20;;
16813;SDS011;8524;57.650;11.926;2023-06-14T06:55:06;5.47;;;3.30;;
16813;SDS011;8524;57.650;11.926;2023-06-14T06:57:36;3.80;;;3.13;;
16813;SDS011;8524;57.650;11.926;2023-06-14T07:00:11;5.50;;;3.23;;
16813;SDS011;8524;57.650;11.926;2023-06-14T07:02:42;3.00;;;2.70;;
16813;SDS011;8524;57.650;11.926;2023-06-14T07:05:13;4.17;;;3.00;;
16813;SDS011;8524;57.650;11.926;2023-06-14T07:07:40;4.30;;;3.20;;
16813;SDS011;8524;57.650;11.926;2023-06-14T07:10:14;2.83;;;2.60;;
16813;SDS011;8524;57.650;11.926;2023-06-14T07:12:41;3.20;;;2.90;;
16813;SDS011;8524;57.650;11.926;2023-06-14T07:15:09;4.05;;;3.15;;
16813;SDS011;8524;57.650;11.926;2023-06-14T07:17:36;4.80;;;3.08;;
16813;SDS011;8524;57.650;11.926;2023-06-14T07:20:05;3.20;;;2.83;;
16813;SDS011;8524;57.650;11.926;2023-06-14T07:22:38;3.63;;;2.88;;
16813;SDS011;8524;57.650;11.926;2023-06-14T07:25:07;3.85;;;3.08;;
16813;SDS011;8524;57.650;11.926;2023-06-14T07:27:34;4.07;;;2.97;;
16813;SDS011;8524;57.650;11.926;2023-06-14T07:30:01;3.17;;;2.88;;
16813;SDS011;8524;57.650;11.926;2023-06-14T07:32:29;3.13;;;2.83;;
16813;SDS011;8524;57.650;11.926;2023-06-14T07:34:56;4.03;;;3.00;;
16813;SDS011;8524;57.650;11.926;2023-06-14T07:37:31;3.47;;;3.17;;
16813;SDS011;8524;57.650;11.926;2023-06-14T07:39:58;4.07;;;2.88;;
16813;SDS011;8524;57.650;11.926;2023-06-14T07:42:25;3.75;;;2.97;;
16813;SDS011;8524;57.650;11.926;2023-06-14T07:44:52;3.20;;;2.90;;
16813;SDS011;8524;57.650;11.926;2023-06-14T07:47:19;3.78;;;2.83;;
16813;SDS011;8524;57.650;11.926;2023-06-14T07:49:46;3.83;;;3.03;;
16813;SDS011;8524;57.650;11.926;2023-06-14T07:52:14;3.85;;;3.10;;
16813;SDS011;8524;57.650;11.926;2023-06-14T07:54:43;3.90;;;2.80;;
16813;SDS011;8524;57.650;11.926;2023-06-14T07:57:10;4.78;;;3.25;;
16813;SDS011;8524;57.650;11.926;2023-06-14T07:59:40;5.75;;;3.47;;
16813;SDS011;8524;57.650;11.926;2023-06-14T08:02:08;4.60;;;3.40;;
16813;SDS011;8524;57.650;11.926;2023-06-14T08:04:38;3.08;;;2.88;;
16813;SDS011;8524;57.650;11.926;2023-06-14T08:07:08;4.40;;;3.00;;
16813;SDS011;8524;57.650;11.926;2023-06-14T08:09:35;5.03;;;3.22;;
16813;SDS011;8524;57.650;11.926;2023-06-14T08:12:08;4.60;;;3.40;;
16813;SDS011;8524;57.650;11.926;2023-06-14T08:14:36;3.10;;;2.75;;
16813;SDS011;8524;57.650;11.926;2023-06-14T08:17:15;3.42;;;3.13;;
16813;SDS011;8524;57.650;11.926;2023-06-14T08:19:45;4.90;;;3.13;;
16813;SDS011;8524;57.650;11.926;2023-06-14T08:22:13;5.22;;;3.28;;
16813;SDS011;8524;57.650;11.926;2023-06-14T08:24:40;3.95;;;3.25;;
16813;SDS011;8524;57.650;11.926;2023-06-14T08:27:09;3.50;;;3.30;;
16813;SDS011;8524;57.650;11.926;2023-06-14T08:29:39;4.40;;;2.97;;
16813;SDS011;8524;57.650;11.926;2023-06-14T08:32:06;4.03;;;3.63;;
16813;SDS011;8524;57.650;11.926;2023-06-14T08:34:34;5.95;;;3.80;;
16813;SDS011;8524;57.650;11.926;2023-06-14T08:37:01;4.88;;;3.30;;
16813;SDS011;8524;57.650;11.926;2023-06-14T08:39:28;4.03;;;3.58;;
16813;SDS011;8524;57.650;11.926;2023-06-14T08:41:55;4.25;;;3.22;;
16813;SDS011;8524;57.650;11.926;2023-06-14T08:44:25;4.32;;;3.13;;
16813;SDS011;8524;57.650;11.926;2023-06-14T08:46:54;3.47;;;3.17;;
16813;SDS011;8524;57.650;11.926;2023-06-14T08:49:53;3.35;;;2.88;;
16813;SDS011;8524;57.650;11.926;2023-06-14T08:52:23;4.22;;;3.25;;
16813;SDS011;8524;57.650;11.926;2023-06-14T08:54:55;3.75;;;3.45;;
16813;SDS011;8524;57.650;11.926;2023-06-14T08:57:22;3.40;;;3.10;;
16813;SDS011;8524;57.650;11.926;2023-06-14T08:59:51;3.95;;;3.13;;
16813;SDS011;8524;57.650;11.926;2023-06-14T09:02:20;4.10;;;3.30;;
16813;SDS011;8524;57.650;11.926;2023-06-14T09:04:47;4.35;;;3.22;;
16813;SDS011;8524;57.650;11.926;2023-06-14T09:07:15;4.80;;;3.22;;
16813;SDS011;8524;57.650;11.926;2023-06-14T09:09:43;3.70;;;3.22;;
16813;SDS011;8524;57.650;11.926;2023-06-14T09:12:10;4.03;;;3.10;;
16813;SDS011;8524;57.650;11.926;2023-06-14T09:14:38;3.40;;;3.10;;
16813;SDS011;8524;57.650;11.926;2023-06-14T09:17:08;3.20;;;2.90;;
16813;SDS011;8524;57.650;11.926;2023-06-14T09:19:39;4.55;;;3.13;;
16813;SDS011;8524;57.650;11.926;2023-06-14T09:22:09;4.13;;;3.25;;
16813;SDS011;8524;57.650;11.926;2023-06-14T09:24:38;4.68;;;3.20;;
16813;SDS011;8524;57.650;11.926;2023-06-14T09:27:05;6.70;;;3.40;;
16813;SDS011;8524;57.650;11.926;2023-06-14T09:29:33;5.13;;;3.30;;
16813;SDS011;8524;57.650;11.926;2023-06-14T09:32:00;5.90;;;3.17;;
16813;SDS011;8524;57.650;11.926;2023-06-14T09:34:29;3.63;;;2.85;;
16813;SDS011;8524;57.650;11.926;2023-06-14T09:36:56;4.90;;;3.47;;
16813;SDS011;8524;57.650;11.926;2023-06-14T09:39:23;3.58;;;3.28;;
16813;SDS011;8524;57.650;11.926;2023-06-14T09:41:52;5.35;;;3.50;;
16813;SDS011;8524;57.650;11.926;2023-06-14T09:44:19;5.03;;;3.00;;
16813;SDS011;8524;57.650;11.926;2023-06-14T09:46:53;4.68;;;3.50;;
16813;SDS011;8524;57.650;11.926;2023-06-14T09:49:25;3.85;;;3.10;;
16813;SDS011;8524;57.650;11.926;2023-06-14T09:51:53;4.95;;;3.08;;
16813;SDS011;8524;57.650;11.926;2023-06-14T09:54:22;4.50;;;3.08;;
16813;SDS011;8524;57.650;11.926;2023-06-14T09:56:51;4.28;;;3.22;;
16813;SDS011;8524;57.650;11.926;2023-06-14T09:59:19;3.20;;;2.90;;
16813;SDS011;8524;57.650;11.926;2023-06-14T10:01:52;3.35;;;2.97;;
16813;SDS011;8524;57.650;11.926;2023-06-14T10:04:27;3.33;;;3.03;;
16813;SDS011;8524;57.650;11.926;2023-06-14T10:06:57;6.40;;;2.75;;
16813;SDS011;8524;57.650;11.926;2023-06-14T10:09:26;3.90;;;3.30;;
16813;SDS011;8524;57.650;11.926;2023-06-14T10:11:55;4.53;;;2.88;;
16813;SDS011;8524;57.650;11.926;2023-06-14T10:14:22;4.80;;;3.15;;
16813;SDS011;8524;57.650;11.926;2023-06-14T10:16:57;4.97;;;3.55;;
16813;SDS011;8524;57.650;11.926;2023-06-14T10:19:32;3.47;;;3.17;;
16813;SDS011;8524;57.650;11.926;2023-06-14T10:22:06;5.30;;;3.30;;
16813;SDS011;8524;57.650;11.926;2023-06-14T10:24:43;3.03;;;2.78;;
16813;SDS011;8524;57.650;11.926;2023-06-14T10:27:16;4.13;;;3.15;;
16813;SDS011;8524;57.650;11.926;2023-06-14T10:30:07;5.85;;;3.33;;
16813;SDS011;8524;57.650;11.926;2023-06-14T10:32:35;3.45;;;2.97;;
16813;SDS011;8524;57.650;11.926;2023-06-14T10:35:22;3.47;;;3.05;;
16813;SDS011;8524;57.650;11.926;2023-06-14T10:37:50;5.95;;;3.40;;
16813;SDS011;8524;57.650;11.926;2023-06-14T10:40:29;3.40;;;3.10;;
16813;SDS011;8524;57.650;11.926;2023-06-14T10:42:57;4.03;;;2.90;;
16813;SDS011;8524;57.650;11.926;2023-06-14T10:45:24;3.47;;;3.15;;
16813;SDS011;8524;57.650;11.926;2023-06-14T10:47:51;3.45;;;3.15;;
16813;SDS011;8524;57.650;11.926;2023-06-14T10:50:22;3.40;;;2.88;;
16813;SDS011;8524;57.650;11.926;2023-06-14T10:53:00;3.40;;;3.10;;
16813;SDS011;8524;57.650;11.926;2023-06-14T10:55:47;3.92;;;3.25;;
16813;SDS011;8524;57.650;11.926;2023-06-14T10:58:14;3.80;;;3.20;;
16813;SDS011;8524;57.650;11.926;2023-06-14T11:00:41;3.65;;;2.90;;
16813;SDS011;8524;57.650;11.926;2023-06-14T11:06:13;5.35;;;3.00;;
16813;SDS011;8524;57.650;11.926;2023-06-14T11:08:51;3.75;;;2.90;;
16813;SDS011;8524;57.650;11.926;2023-06-14T11:11:44;3.40;;;3.10;;
16813;SDS011;8524;57.650;11.926;2023-06-14T11:14:14;3.83;;;2.63;;
16813;SDS011;8524;57.650;11.926;2023-06-14T11:16:41;2.92;;;2.60;;
16813;SDS011;8524;57.650;11.926;2023-06-14T11:19:13;4.35;;;2.80;;
16813;SDS011;8524;57.650;11.926;2023-06-14T11:21:42;3.25;;;2.95;;
16813;SDS011;8524;57.650;11.926;2023-06-14T11:24:14;3.40;;;2.53;;
16813;SDS011;8524;57.650;11.926;2023-06-14T11:26:43;3.22;;;2.80;;
16813;SDS011;8524;57.650;11.926;2023-06-14T11:29:10;3.20;;;2.88;;
16813;SDS011;8524;57.650;11.926;2023-06-14T11:31:37;5.18;;;3.00;;
16813;SDS011;8524;57.650;11.926;2023-06-14T11:34:09;3.55;;;2.92;;
16813;SDS011;8524;57.650;11.926;2023-06-14T11:36:37;3.00;;;2.70;;
16813;SDS011;8524;57.650;11.926;2023-06-14T11:39:05;2.63;;;2.40;;
16813;SDS011;8524;57.650;11.926;2023-06-14T11:41:36;2.97;;;2.30;;
16813;SDS011;8524;57.650;11.926;2023-06-14T11:44:04;3.65;;;2.85;;
16813;SDS011;8524;57.650;11.926;2023-06-14T11:46:32;3.10;;;2.42;;
16813;SDS011;8524;57.650;11.926;2023-06-14T11:48:59;2.70;;;2.50;;
16813;SDS011;8524;57.650;11.926;2023-06-14T11:51:28;2.85;;;2.63;;
16813;SDS011;8524;57.650;11.926;2023-06-14T11:53:55;4.32;;;2.85;;
16813;SDS011;8524;57.650;11.926;2023-06-14T11:56:23;4.38;;;2.80;;
16813;SDS011;8524;57.650;11.926;2023-06-14T11:58:53;2.53;;;2.33;;
16813;SDS011;8524;57.650;11.926;2023-06-14T12:01:22;4.32;;;2.40;;
16813;SDS011;8524;57.650;11.926;2023-06-14T12:03:51;3.83;;;2.83;;
16813;SDS011;8524;57.650;11.926;2023-06-14T12:06:25;3.53;;;2.42;;
16813;SDS011;8524;57.650;11.926;2023-06-14T12:08:58;3.28;;;2.75;;
16813;SDS011;8524;57.650;11.926;2023-06-14T12:11:28;3.90;;;2.58;;
16813;SDS011;8524;57.650;11.926;2023-06-14T12:14:02;5.45;;;2.85;;
16813;SDS011;8524;57.650;11.926;2023-06-14T12:16:30;3.45;;;2.80;;
16813;SDS011;8524;57.650;11.926;2023-06-14T12:19:07;4.50;;;2.70;;
16813;SDS011;8524;57.650;11.926;2023-06-14T12:21:36;2.88;;;2.30;;
16813;SDS011;8524;57.650;11.926;2023-06-14T12:24:05;2.78;;;2.28;;
16813;SDS011;8524;57.650;11.926;2023-06-14T12:26:33;3.65;;;2.70;;
16813;SDS011;8524;57.650;11.926;2023-06-14T12:29:05;4.32;;;2.72;;
16813;SDS011;8524;57.650;11.926;2023-06-14T12:31:33;3.33;;;3.10;;
16813;SDS011;8524;57.650;11.926;2023-06-14T12:34:00;3.35;;;2.97;;
16813;SDS011;8524;57.650;11.926;2023-06-14T12:36:28;2.72;;;2.40;;
16813;SDS011;8524;57.650;11.926;2023-06-14T12:38:55;4.50;;;2.53;;
16813;SDS011;8524;57.650;11.926;2023-06-14T12:41:22;3.45;;;2.70;;
16813;SDS011;8524;57.650;11.926;2023-06-14T12:43:49;4.50;;;3.17;;
16813;SDS011;8524;57.650;11.926;2023-06-14T12:46:18;3.80;;;2.67;;
16813;SDS011;8524;57.650;11.926;2023-06-14T12:48:46;6.90;;;2.88;;
16813;SDS011;8524;57.650;11.926;2023-06-14T12:51:13;4.05;;;2.80;;
16813;SDS011;8524;57.650;11.926;2023-06-14T12:53:41;2.90;;;2.70;;
16813;SDS011;8524;57.650;11.926;2023-06-14T12:56:14;4.30;;;3.00;;
16813;SDS011;8524;57.650;11.926;2023-06-14T12:58:42;3.10;;;2.80;;
16813;SDS011;8524;57.650;11.926;2023-06-14T13:01:09;3.17;;;2.88;;
16813;SDS011;8524;57.650;11.926;2023-06-14T13:03:37;2.40;;;2.20;;
16813;SDS011;8524;57.650;11.926;2023-06-14T13:06:04;3.10;;;2.67;;
16813;SDS011;8524;57.650;11.926;2023-06-14T13:08:34;2.97;;;2.70;;
16813;SDS011;8524;57.650;11.926;2023-06-14T13:11:01;2.90;;;2.60;;
16813;SDS011;8524;57.650;11.926;2023-06-14T13:13:28;2.90;;;2.70;;
16813;SDS011;8524;57.650;11.926;2023-06-14T13:15:55;7.63;;;5.10;;
16813;SDS011;8524;57.650;11.926;2023-06-14T13:18:22;5.38;;;4.53;;
16813;SDS011;8524;57.650;11.926;2023-06-14T13:20:51;9.68;;;4.75;;
16813;SDS011;8524;57.650;11.926;2023-06-14T13:23:18;4.72;;;3.28;;
16813;SDS011;8524;57.650;11.926;2023-06-14T13:25:45;3.30;;;3.00;;
16813;SDS011;8524;57.650;11.926;2023-06-14T13:28:14;3.13;;;2.83;;
16813;SDS011;8524;57.650;11.926;2023-06-14T13:30:41;3.75;;;2.75;;
16813;SDS011;8524;57.650;11.926;2023-06-14T13:33:09;3.47;;;2.90;;
16813;SDS011;8524;57.650;11.926;2023-06-14T13:35:36;3.33;;;3.03;;
16813;SDS011;8524;57.650;11.926;2023-06-14T13:38:04;4.57;;;2.88;;
16813;SDS011;8524;57.650;11.926;2023-06-14T13:40:31;3.20;;;2.60;;
16813;SDS011;8524;57.650;11.926;2023-06-14T13:42:58;2.95;;;2.55;;
16813;SDS011;8524;57.650;11.926;2023-06-14T13:45:25;4.68;;;2.78;;
16813;SDS011;8524;57.650;11.926;2023-06-14T13:47:52;3.00;;;2.67;;
16813;SDS011;8524;57.650;11.926;2023-06-14T13:50:20;4.40;;;3.03;;
16813;SDS011;8524;57.650;11.926;2023-06-14T13:52:47;3.67;;;2.58;;
16813;SDS011;8524;57.650;11.926;2023-06-14T13:55:15;3.97;;;2.78;;
16813;SDS011;8524;57.650;11.926;2023-06-14T13:57:42;2.92;;;2.55;;
16813;SDS011;8524;57.650;11.926;2023-06-14T14:00:10;3.75;;;3.13;;
16813;SDS011;8524;57.650;11.926;2023-06-14T14:02:47;5.68;;;3.25;;
16813;SDS011;8524;57.650;11.926;2023-06-14T14:05:15;3.50;;;2.90;;
16813;SDS011;8524;57.650;11.926;2023-06-14T14:07:42;3.20;;;2.90;;
16813;SDS011;8524;57.650;11.926;2023-06-14T14:10:10;5.45;;;3.03;;
16813;SDS011;8524;57.650;11.926;2023-06-14T14:12:41;3.33;;;2.60;;
16813;SDS011;8524;57.650;11.926;2023-06-14T14:15:08;4.25;;;2.90;;
16813;SDS011;8524;57.650;11.926;2023-06-14T14:17:38;4.32;;;3.15;;
16813;SDS011;8524;57.650;11.926;2023-06-14T14:20:05;3.45;;;2.90;;
16813;SDS011;8524;57.650;11.926;2023-06-14T14:22:33;3.38;;;3.08;;
16813;SDS011;8524;57.650;11.926;2023-06-14T14:25:00;4.50;;;2.72;;
16813;SDS011;8524;57.650;11.926;2023-06-14T14:27:27;3.95;;;2.72;;
16813;SDS011;8524;57.650;11.926;2023-06-14T14:29:55;3.83;;;2.80;;
16813;SDS011;8524;57.650;11.926;2023-06-14T14:32:22;4.82;;;2.85;;
16813;SDS011;8524;57.650;11.926;2023-06-14T14:34:49;3.40;;;3.05;;
16813;SDS011;8524;57.650;11.926;2023-06-14T14:37:16;4.63;;;3.33;;
16813;SDS011;8524;57.650;11.926;2023-06-14T14:39:44;4.95;;;2.80;;
16813;SDS011;8524;57.650;11.926;2023-06-14T14:42:11;4.40;;;3.28;;
16813;SDS011;8524;57.650;11.926;2023-06-14T14:44:38;3.30;;;2.88;;
16813;SDS011;8524;57.650;11.926;2023-06-14T14:47:07;3.55;;;2.90;;
16813;SDS011;8524;57.650;11.926;2023-06-14T14:49:34;5.10;;;3.35;;
16813;SDS011;8524;57.650;11.926;2023-06-14T14:52:01;3.15;;;2.85;;
16813;SDS011;8524;57.650;11.926;2023-06-14T14:54:28;4.20;;;2.80;;
16813;SDS011;8524;57.650;11.926;2023-06-14T14:56:55;3.38;;;3.00;;
16813;SDS011;8524;57.650;11.926;2023-06-14T14:59:22;4.82;;;2.92;;
16813;SDS011;8524;57.650;11.926;2023-06-14T15:01:49;3.33;;;3.03;;